createdAt,value
2023-05-01T00:00:53.447Z,31.05
2023-05-01T00:03:20.204Z,31.08
2023-05-01T00:05:47.098Z,32.70
2023-05-01T00:08:13.695Z,29.58
2023-05-01T00:10:40.178Z,32.13
2023-05-01T00:13:06.692Z,33.47
2023-05-01T00:15:33.331Z,32.25
2023-05-01T00:17:59.888Z,32.58
2023-05-01T00:20:30.092Z,32.83
2023-05-01T00:22:56.595Z,33.90
2023-05-01T00:25:23.244Z,36.20
2023-05-01T00:27:49.703Z,38.85
2023-05-01T00:30:16.206Z,29.50
2023-05-01T00:32:43.011Z,36.88
2023-05-01T00:35:09.665Z,35.80
2023-05-01T00:37:36.228Z,38.58
2023-05-01T00:40:02.694Z,35.90
2023-05-01T00:42:34.623Z,34.15
2023-05-01T00:45:01.592Z,33.70
2023-05-01T00:47:28.093Z,36.58
2023-05-01T00:49:55.988Z,33.42
2023-05-01T00:52:24.460Z,33.05
2023-05-01T00:54:51.126Z,39.78
2023-05-01T00:57:21.518Z,36.33
2023-05-01T00:59:48.776Z,31.13
2023-05-01T01:02:15.513Z,34.78
2023-05-01T01:04:43.561Z,30.17
2023-05-01T01:07:28.762Z,35.70
2023-05-01T01:10:00.475Z,32.97
2023-05-01T01:12:48.336Z,32.70
2023-05-01T01:15:39.911Z,33.88
2023-05-01T01:21:03.910Z,26.15
2023-05-01T01:23:49.158Z,25.58
2023-05-01T01:26:21.772Z,30.70
2023-05-01T01:29:18.941Z,29.90
2023-05-01T01:32:08.690Z,30.80
2023-05-01T01:34:51.757Z,30.08
2023-05-01T01:37:22.900Z,35.33
2023-05-01T01:40:01.304Z,30.75
2023-05-01T01:42:42.087Z,25.52
2023-05-01T01:45:21.911Z,30.70
2023-05-01T01:47:50.631Z,31.73
2023-05-01T01:50:20.286Z,34.78
2023-05-01T01:52:49.971Z,36.50
2023-05-01T01:55:20.711Z,33.50
2023-05-01T01:57:50.283Z,28.25
2023-05-01T02:00:17.942Z,24.17
2023-05-01T02:02:48.689Z,25.00
2023-05-01T02:05:17.844Z,37.65
2023-05-01T02:07:48.853Z,32.03
2023-05-01T02:10:16.062Z,32.33
2023-05-01T02:12:45.915Z,29.42
2023-05-01T02:15:16.135Z,32.38
2023-05-01T02:17:42.799Z,30.98
2023-05-01T02:20:11.617Z,31.67
2023-05-01T02:22:41.972Z,29.95
2023-05-01T02:25:13.325Z,26.35
2023-05-01T02:27:55.787Z,27.58
2023-05-01T02:30:22.336Z,23.70
2023-05-01T02:32:48.962Z,24.02
2023-05-01T02:35:15.624Z,23.83
2023-05-01T02:37:42.178Z,26.35
2023-05-01T02:40:11.300Z,29.08
2023-05-01T02:42:39.684Z,29.52
2023-05-01T02:45:16.426Z,32.97
2023-05-01T02:47:45.531Z,30.75
2023-05-01T02:50:13.858Z,27.35
2023-05-01T02:52:42.347Z,36.97
2023-05-01T02:55:32.449Z,31.27
2023-05-01T02:57:59.677Z,32.88
2023-05-01T03:00:26.936Z,35.45
2023-05-01T03:02:53.685Z,33.15
2023-05-01T03:05:20.219Z,35.85
2023-05-01T03:07:47.436Z,33.50
2023-05-01T03:10:14.320Z,34.08
2023-05-01T03:12:40.855Z,38.80
2023-05-01T03:15:07.938Z,32.92
2023-05-01T03:17:34.891Z,35.78
2023-05-01T03:20:01.402Z,34.53
2023-05-01T03:22:31.915Z,32.90
2023-05-01T03:24:59.286Z,36.13
2023-05-01T03:27:25.758Z,35.78
2023-05-01T03:29:54.667Z,37.70
2023-05-01T03:32:21.366Z,35.15
2023-05-01T03:34:48.865Z,32.97
2023-05-01T03:37:16.604Z,34.60
2023-05-01T03:39:43.257Z,32.15
2023-05-01T03:42:28.174Z,27.67
2023-05-01T03:45:00.500Z,33.08
2023-05-01T03:47:28.242Z,28.92
2023-05-01T03:49:54.851Z,33.15
2023-05-01T03:52:21.486Z,31.25
2023-05-01T03:54:49.139Z,32.63
2023-05-01T03:57:26.075Z,34.28
2023-05-01T03:59:53.008Z,30.63
2023-05-01T04:02:20.264Z,30.85
2023-05-01T04:04:46.899Z,29.23
2023-05-01T04:07:13.852Z,35.08
2023-05-01T04:09:40.798Z,35.40
2023-05-01T04:12:07.291Z,34.70
2023-05-01T04:14:33.814Z,33.55
2023-05-01T04:17:00.968Z,38.63
2023-05-01T04:19:32.094Z,34.60
2023-05-01T04:22:00.036Z,30.52
2023-05-01T04:24:26.545Z,38.08
2023-05-01T04:26:53.580Z,34.17
2023-05-01T04:29:20.054Z,33.28
2023-05-01T04:31:46.627Z,35.83
2023-05-01T04:34:13.168Z,33.25
2023-05-01T04:36:39.761Z,35.78
2023-05-01T04:39:06.219Z,31.98
2023-05-01T04:41:33.690Z,34.58
2023-05-01T04:44:00.236Z,34.05
2023-05-01T04:46:26.844Z,33.65
2023-05-01T04:48:53.451Z,37.22
2023-05-01T04:51:20.606Z,35.05
2023-05-01T04:53:47.369Z,29.38
2023-05-01T04:56:21.834Z,34.90
2023-05-01T04:58:51.626Z,30.02
2023-05-01T05:01:21.584Z,33.00
2023-05-01T05:03:50.166Z,27.67
2023-05-01T05:06:17.288Z,29.10
2023-05-01T05:08:43.850Z,29.15
2023-05-01T05:11:11.146Z,28.42
2023-05-01T05:14:06.754Z,29.75
2023-05-01T05:16:33.267Z,28.27
2023-05-01T05:18:59.792Z,31.80
2023-05-01T05:21:28.503Z,25.95
2023-05-01T05:23:57.129Z,26.42
2023-05-01T05:26:24.130Z,24.73
2023-05-01T05:28:51.194Z,25.20
2023-05-01T05:31:17.778Z,27.50
2023-05-01T05:33:44.400Z,27.52
2023-05-01T05:36:11.154Z,25.10
2023-05-01T05:38:41.002Z,29.13
2023-05-01T05:41:10.438Z,30.02
2023-05-01T05:43:37.070Z,25.88
2023-05-01T05:46:04.486Z,26.55
2023-05-01T05:48:33.294Z,24.33
2023-05-01T05:51:00.113Z,23.58
2023-05-01T05:53:26.677Z,23.45
2023-05-01T05:55:54.078Z,25.42
2023-05-01T05:58:20.891Z,25.83
2023-05-01T06:00:52.036Z,27.83
2023-05-01T06:03:18.972Z,22.95
2023-05-01T06:05:45.970Z,26.63
2023-05-01T06:08:12.781Z,25.13
2023-05-01T06:10:43.418Z,23.83
2023-05-01T06:13:13.889Z,20.48
2023-05-01T06:15:43.547Z,22.52
2023-05-01T06:18:10.350Z,21.13
2023-05-01T06:20:37.113Z,19.92
2023-05-01T06:23:05.343Z,20.20
2023-05-01T06:25:54.819Z,21.45
2023-05-01T06:28:21.366Z,19.45
2023-05-01T06:30:47.887Z,24.60
2023-05-01T06:33:16.497Z,20.30
2023-05-01T06:35:46.652Z,18.60
2023-05-01T06:38:13.132Z,18.45
2023-05-01T06:40:39.738Z,22.38
2023-05-01T06:43:06.309Z,22.25
2023-05-01T06:45:32.786Z,19.38
2023-05-01T06:47:59.646Z,23.95
2023-05-01T06:50:26.198Z,18.17
2023-05-01T06:52:52.674Z,22.02
2023-05-01T06:55:19.174Z,20.17
2023-05-01T06:57:45.741Z,20.50
2023-05-01T07:00:12.867Z,17.92
2023-05-01T07:02:39.407Z,16.50
2023-05-01T07:05:06.216Z,21.67
2023-05-01T07:07:32.713Z,17.25
2023-05-01T07:09:59.586Z,16.17
2023-05-01T07:12:26.358Z,18.60
2023-05-01T07:14:52.839Z,16.38
2023-05-01T07:17:19.390Z,16.55
2023-05-01T07:19:45.861Z,17.95
2023-05-01T07:22:12.335Z,17.10
2023-05-01T07:24:39.029Z,13.98
2023-05-01T07:27:05.535Z,19.35
2023-05-01T07:29:32.123Z,16.08
2023-05-01T07:31:58.776Z,16.25
2023-05-01T07:34:25.255Z,19.73
2023-05-01T07:36:51.722Z,21.02
2023-05-01T07:39:18.317Z,18.23
2023-05-01T07:41:44.903Z,22.48
2023-05-01T07:44:11.359Z,18.83
2023-05-01T07:46:37.980Z,17.48
2023-05-01T07:49:04.590Z,18.85
2023-05-01T07:51:31.553Z,14.45
2023-05-01T07:53:58.161Z,16.90
2023-05-01T07:56:24.647Z,16.38
2023-05-01T07:58:51.087Z,14.57
2023-05-01T08:01:17.595Z,15.45
2023-05-01T08:03:44.125Z,19.30
2023-05-01T08:06:10.718Z,18.48
2023-05-01T08:08:37.252Z,17.08
2023-05-01T08:11:03.988Z,15.85
2023-05-01T08:13:30.484Z,19.15
2023-05-01T08:16:01.872Z,19.83
2023-05-01T08:18:28.783Z,15.90
2023-05-01T08:20:55.360Z,13.45
2023-05-01T08:23:22.003Z,16.10
2023-05-01T08:25:48.476Z,17.90
2023-05-01T08:28:15.056Z,12.95
2023-05-01T08:30:41.554Z,16.92
2023-05-01T08:33:08.104Z,19.08
2023-05-01T08:35:34.664Z,19.70
2023-05-01T08:38:01.284Z,16.00
2023-05-01T08:40:32.265Z,18.40
2023-05-01T08:43:01.060Z,16.20
2023-05-01T08:45:28.433Z,18.88
2023-05-01T08:47:55.625Z,15.82
2023-05-01T08:50:23.331Z,14.63
2023-05-01T08:52:51.591Z,16.90
2023-05-01T08:55:20.654Z,15.23
2023-05-01T08:57:48.247Z,14.55
2023-05-01T09:00:20.142Z,13.27
2023-05-01T09:02:49.011Z,14.50
2023-05-01T09:05:16.750Z,11.60
2023-05-01T09:07:45.054Z,10.90
2023-05-01T09:10:12.780Z,13.13
2023-05-01T09:12:39.847Z,16.10
2023-05-01T09:15:07.608Z,13.05
2023-05-01T09:17:35.123Z,13.90
2023-05-01T09:20:02.928Z,12.25
2023-05-01T09:22:31.151Z,13.30
2023-05-01T09:24:57.622Z,14.55
2023-05-01T09:27:24.218Z,13.32
2023-05-01T09:29:50.657Z,13.98
2023-05-01T09:32:17.215Z,10.88
2023-05-01T09:34:44.406Z,15.45
2023-05-01T09:37:13.623Z,9.68
2023-05-01T09:39:40.147Z,9.73
2023-05-01T09:42:06.801Z,9.57
2023-05-01T09:44:41.031Z,12.63
2023-05-01T09:47:07.620Z,10.50
2023-05-01T09:49:45.081Z,9.55
2023-05-01T09:52:11.925Z,10.20
2023-05-01T09:54:38.482Z,8.15
2023-05-01T09:57:04.960Z,8.20
2023-05-01T09:59:31.417Z,8.75
2023-05-01T10:01:58.059Z,9.52
2023-05-01T10:04:34.968Z,6.30
2023-05-01T10:07:14.530Z,7.85
2023-05-01T10:09:41.085Z,8.35
2023-05-01T10:12:07.551Z,9.95
2023-05-01T10:14:34.491Z,7.18
2023-05-01T10:17:01.029Z,6.22
2023-05-01T10:19:27.665Z,7.18
2023-05-01T10:21:54.218Z,5.80
2023-05-01T10:24:20.758Z,6.40
2023-05-01T10:26:48.671Z,5.68
2023-05-01T10:29:16.495Z,7.22
2023-05-01T10:31:43.339Z,13.85
2023-05-01T10:34:16.102Z,10.13
2023-05-01T10:36:48.328Z,8.73
2023-05-01T10:39:33.054Z,10.07
2023-05-01T10:42:04.053Z,8.60
2023-05-01T10:44:31.145Z,8.93
2023-05-01T10:46:58.108Z,9.90
2023-05-01T10:49:24.694Z,8.43
2023-05-01T10:51:56.984Z,8.40
2023-05-01T10:54:33.078Z,7.05
2023-05-01T10:57:01.595Z,7.07
2023-05-01T10:59:58.830Z,9.48
2023-05-01T11:02:25.437Z,6.82
2023-05-01T11:04:52.225Z,9.93
2023-05-01T11:07:19.551Z,8.82
2023-05-01T11:09:56.030Z,8.27
2023-05-01T11:12:48.401Z,7.63
2023-05-01T11:15:33.705Z,6.28
2023-05-01T11:18:01.830Z,7.75
2023-05-01T11:20:28.297Z,7.88
2023-05-01T11:22:56.478Z,8.60
2023-05-01T11:25:27.925Z,8.45
2023-05-01T11:27:56.502Z,7.47
2023-05-01T11:30:23.811Z,7.45
2023-05-01T11:32:51.452Z,7.10
2023-05-01T11:35:21.686Z,4.97
2023-05-01T11:37:48.728Z,5.93
2023-05-01T11:40:26.765Z,6.18
2023-05-01T11:43:07.462Z,6.10
2023-05-01T11:45:35.891Z,7.22
2023-05-01T11:48:04.388Z,6.50
2023-05-01T11:50:34.739Z,8.38
2023-05-01T11:53:02.096Z,7.13
2023-05-01T11:55:35.573Z,4.85
2023-05-01T11:58:02.411Z,6.32
2023-05-01T12:00:34.249Z,5.10
2023-05-01T12:03:03.001Z,5.93
2023-05-01T12:05:31.356Z,6.07
2023-05-01T12:08:16.166Z,5.22
2023-05-01T12:10:43.660Z,5.65
2023-05-01T12:13:13.232Z,4.07
2023-05-01T12:15:44.405Z,4.57
2023-05-01T12:18:12.587Z,6.32
2023-05-01T12:20:50.266Z,6.78
2023-05-01T12:23:17.035Z,5.40
2023-05-01T12:25:45.075Z,7.00
2023-05-01T12:28:16.846Z,4.97
2023-05-01T12:30:44.426Z,4.95
2023-05-01T12:33:16.068Z,5.97
2023-05-01T12:35:44.456Z,6.00
2023-05-01T12:38:13.313Z,7.18
2023-05-01T12:40:48.814Z,5.15
2023-05-01T12:43:15.494Z,4.70
2023-05-01T12:45:42.022Z,4.75
2023-05-01T12:48:14.554Z,5.15
2023-05-01T12:50:41.683Z,7.20
2023-05-01T12:53:09.352Z,6.88
2023-05-01T12:56:02.376Z,5.65
2023-05-01T12:58:38.500Z,5.15
2023-05-01T13:01:05.291Z,5.47
2023-05-01T13:03:33.951Z,7.15
2023-05-01T13:06:04.554Z,6.25
2023-05-01T13:08:37.558Z,4.85
2023-05-01T13:11:17.546Z,5.47
2023-05-01T13:13:45.421Z,6.00
2023-05-01T13:16:16.238Z,4.03
2023-05-01T13:18:50.934Z,7.18
2023-05-01T13:21:22.473Z,7.18
2023-05-01T13:23:54.170Z,4.35
2023-05-01T13:26:33.790Z,4.75
2023-05-01T13:29:00.902Z,4.60
2023-05-01T13:31:27.899Z,6.13
2023-05-01T13:33:55.792Z,4.53
2023-05-01T13:36:26.869Z,4.85
2023-05-01T13:38:56.637Z,4.60
2023-05-01T13:41:25.473Z,4.88
2023-05-01T13:43:55.104Z,5.43
2023-05-01T13:46:23.450Z,11.30
2023-05-01T13:48:50.104Z,8.07
2023-05-01T13:51:25.226Z,11.45
2023-05-01T13:53:52.206Z,6.10
2023-05-01T13:56:19.105Z,14.10
2023-05-01T13:58:45.657Z,9.30
2023-05-01T14:01:16.697Z,10.02
2023-05-01T14:03:43.460Z,8.20
2023-05-01T14:06:20.513Z,7.18
2023-05-01T14:08:48.721Z,6.55
2023-05-01T14:11:15.384Z,4.72
2023-05-01T14:13:44.154Z,4.80
2023-05-01T14:16:31.866Z,4.22
2023-05-01T14:18:58.472Z,4.28
2023-05-01T14:21:26.441Z,6.22
2023-05-01T14:23:53.311Z,6.00
2023-05-01T14:26:21.306Z,4.88
2023-05-01T14:28:48.154Z,4.30
2023-05-01T14:31:28.659Z,5.38
2023-05-01T14:33:59.953Z,5.38
2023-05-01T14:36:27.769Z,5.22
2023-05-01T14:38:58.220Z,6.30
2023-05-01T14:41:24.818Z,5.20
2023-05-01T14:43:51.562Z,4.72
2023-05-01T14:46:27.891Z,5.95
2023-05-01T14:48:54.430Z,5.47
2023-05-01T14:51:21.010Z,7.50
2023-05-01T14:53:47.498Z,8.10
2023-05-01T14:56:14.042Z,5.68
2023-05-01T14:58:40.549Z,7.82
2023-05-01T15:01:07.258Z,4.72
2023-05-01T15:03:34.959Z,7.80
2023-05-01T15:06:01.544Z,10.75
2023-05-01T15:08:28.088Z,5.88
2023-05-01T15:10:54.533Z,6.15
2023-05-01T15:13:21.014Z,5.25
2023-05-01T15:15:47.477Z,7.13
2023-05-01T15:18:13.963Z,8.45
2023-05-01T15:20:40.537Z,5.25
2023-05-01T15:23:07.006Z,5.80
2023-05-01T15:25:33.494Z,6.00
2023-05-01T15:27:59.961Z,7.15
2023-05-01T15:30:26.451Z,6.50
2023-05-01T15:32:53.659Z,6.05
2023-05-01T15:35:20.206Z,7.93
2023-05-01T15:37:46.641Z,7.38
2023-05-01T15:40:13.176Z,5.28
2023-05-01T15:42:39.666Z,7.30
2023-05-01T15:45:06.862Z,5.03
2023-05-01T15:47:33.417Z,7.75
2023-05-01T15:50:00.203Z,5.25
2023-05-01T15:52:27.329Z,8.07
2023-05-01T15:54:53.740Z,6.63
2023-05-01T15:57:20.212Z,5.60
2023-05-01T15:59:46.686Z,8.30
2023-05-01T16:02:13.251Z,4.50
2023-05-01T16:04:39.902Z,4.85
2023-05-01T16:07:06.428Z,4.03
2023-05-01T16:09:32.981Z,6.40
2023-05-01T16:12:02.066Z,5.32
2023-05-01T16:14:28.736Z,5.20
2023-05-01T16:16:55.406Z,9.68
2023-05-01T16:19:22.322Z,5.05
2023-05-01T16:21:48.879Z,3.92
2023-05-01T16:24:15.411Z,5.57
2023-05-01T16:26:41.924Z,4.07
2023-05-01T16:29:08.643Z,5.28
2023-05-01T16:31:38.906Z,5.55
2023-05-01T16:34:15.718Z,6.78
2023-05-01T16:36:42.362Z,5.10
2023-05-01T16:39:14.654Z,6.28
2023-05-01T16:41:46.337Z,4.30
2023-05-01T16:44:13.561Z,4.20
2023-05-01T16:46:47.910Z,5.30
2023-05-01T16:49:15.321Z,4.68
2023-05-01T16:51:41.831Z,4.32
2023-05-01T16:54:08.530Z,5.25
2023-05-01T16:56:34.970Z,4.95
2023-05-01T16:59:01.400Z,6.72
2023-05-01T17:01:27.986Z,5.55
2023-05-01T17:03:54.583Z,7.15
2023-05-01T17:06:21.089Z,4.93
2023-05-01T17:08:47.556Z,6.28
2023-05-01T17:11:14.052Z,3.72
2023-05-01T17:13:40.577Z,3.63
2023-05-01T17:16:07.351Z,6.25
2023-05-01T17:18:34.150Z,5.15
2023-05-01T17:21:00.646Z,4.45
2023-05-01T17:23:27.198Z,6.85
2023-05-01T17:25:54.083Z,4.25
2023-05-01T17:28:20.593Z,4.07
2023-05-01T17:30:47.036Z,3.88
2023-05-01T17:33:14.661Z,4.30
2023-05-01T17:35:41.188Z,5.65
2023-05-01T17:38:07.926Z,4.68
2023-05-01T17:40:34.442Z,6.20
2023-05-01T17:43:01.009Z,4.45
2023-05-01T17:45:27.565Z,2.88
2023-05-01T17:47:54.155Z,7.68
2023-05-01T17:50:20.736Z,7.45
2023-05-01T17:52:48.031Z,3.50
2023-05-01T17:55:17.174Z,3.60
2023-05-01T17:57:46.193Z,5.35
2023-05-01T18:00:13.254Z,3.95
2023-05-01T18:02:39.772Z,3.20
2023-05-01T18:05:06.399Z,4.07
2023-05-01T18:07:32.934Z,7.57
2023-05-01T18:10:00.052Z,5.40
2023-05-01T18:12:26.834Z,4.57
2023-05-01T18:14:53.342Z,4.32
2023-05-01T18:17:22.120Z,3.67
2023-05-01T18:19:51.492Z,3.95
2023-05-01T18:22:18.081Z,4.40
2023-05-01T18:24:44.555Z,4.75
2023-05-01T18:27:12.297Z,4.15
2023-05-01T18:29:38.817Z,4.65
2023-05-01T18:32:05.723Z,4.07
2023-05-01T18:34:32.252Z,4.90
2023-05-01T18:36:58.759Z,6.97
2023-05-01T18:39:25.272Z,4.32
2023-05-01T18:41:54.295Z,5.22
2023-05-01T18:44:20.765Z,4.72
2023-05-01T18:46:47.292Z,8.60
2023-05-01T18:49:13.755Z,4.35
2023-05-01T18:51:40.288Z,7.50
2023-05-01T18:54:06.783Z,6.05
2023-05-01T18:56:33.817Z,8.60
2023-05-01T18:59:00.881Z,6.38
2023-05-01T19:01:27.501Z,5.07
2023-05-01T19:03:53.955Z,7.50
2023-05-01T19:06:20.499Z,6.65
2023-05-01T19:08:46.997Z,9.32
2023-05-01T19:11:13.482Z,9.98
2023-05-01T19:13:40.056Z,8.10
2023-05-01T19:16:07.641Z,8.10
2023-05-01T19:18:34.111Z,8.98
2023-05-01T19:21:00.667Z,7.10
2023-05-01T19:23:27.107Z,7.47
2023-05-01T19:25:53.546Z,5.78
2023-05-01T19:28:20.002Z,6.55
2023-05-01T19:30:46.480Z,6.47
2023-05-01T19:33:12.978Z,8.68
2023-05-01T19:35:39.510Z,6.95
2023-05-01T19:38:05.962Z,8.43
2023-05-01T19:40:32.549Z,11.05
2023-05-01T19:42:59.028Z,9.80
2023-05-01T19:45:25.526Z,9.27
2023-05-01T19:47:51.997Z,10.88
2023-05-01T19:50:18.759Z,9.18
2023-05-01T19:52:45.320Z,7.50
2023-05-01T19:55:11.823Z,7.50
2023-05-01T19:57:38.806Z,8.27
2023-05-01T20:00:06.585Z,6.32
2023-05-01T20:02:36.675Z,7.82
2023-05-01T20:05:03.349Z,5.50
2023-05-01T20:07:29.985Z,5.90
2023-05-01T20:09:56.993Z,5.40
2023-05-01T20:12:23.800Z,4.18
2023-05-01T20:14:50.308Z,4.28
2023-05-01T20:17:16.768Z,4.78
2023-05-01T20:19:43.238Z,6.75
2023-05-01T20:22:09.687Z,4.00
2023-05-01T20:24:36.131Z,5.75
2023-05-01T20:27:05.645Z,7.00
2023-05-01T20:29:32.166Z,4.30
2023-05-01T20:31:58.916Z,7.22
2023-05-01T20:34:25.709Z,4.75
2023-05-01T20:36:52.255Z,4.50
2023-05-01T20:39:18.863Z,4.50
2023-05-01T20:41:45.298Z,6.35
2023-05-01T20:44:11.779Z,4.45
2023-05-01T20:46:38.281Z,6.53
2023-05-01T20:49:04.764Z,6.65
2023-05-01T20:51:31.189Z,6.60
2023-05-01T20:53:57.660Z,7.43
2023-05-01T20:56:24.160Z,5.57
2023-05-01T20:58:50.620Z,7.15
2023-05-01T21:01:17.100Z,4.63
2023-05-01T21:03:43.787Z,7.35
2023-05-01T21:06:10.524Z,10.40
2023-05-01T21:08:37.266Z,5.90
2023-05-01T21:11:03.753Z,6.18
2023-05-01T21:13:31.566Z,4.88
2023-05-01T21:15:58.082Z,5.63
2023-05-01T21:18:25.956Z,5.85
2023-05-01T21:20:52.471Z,5.13
2023-05-01T21:23:18.960Z,6.22
2023-05-01T21:25:45.431Z,4.72
2023-05-01T21:28:14.170Z,4.40
2023-05-01T21:30:41.254Z,7.25
2023-05-01T21:33:12.556Z,4.38
2023-05-01T21:35:42.169Z,3.80
2023-05-01T21:38:09.345Z,6.15
2023-05-01T21:40:41.618Z,4.82
2023-05-01T21:43:08.500Z,5.57
2023-05-01T21:45:35.181Z,5.28
2023-05-01T21:48:01.887Z,5.53
2023-05-01T21:50:33.661Z,6.55
2023-05-01T21:53:00.151Z,8.60
2023-05-01T21:55:26.617Z,8.30
2023-05-01T21:57:53.080Z,8.30
2023-05-01T22:00:20.561Z,9.85
2023-05-01T22:02:49.426Z,11.82
2023-05-01T22:05:18.029Z,8.95
2023-05-01T22:07:46.102Z,8.75
2023-05-01T22:10:15.082Z,8.38
2023-05-01T22:12:41.864Z,9.88
2023-05-01T22:15:09.897Z,10.55
2023-05-01T22:17:36.918Z,9.80
2023-05-01T22:20:04.199Z,9.80
2023-05-01T22:22:30.679Z,8.45
2023-05-01T22:24:57.274Z,8.82
2023-05-01T22:27:23.837Z,8.30
2023-05-01T22:29:50.286Z,9.85
2023-05-01T22:32:16.960Z,5.47
2023-05-01T22:34:43.444Z,7.60
2023-05-01T22:37:10.196Z,9.57
2023-05-01T22:39:36.628Z,8.43
2023-05-01T22:42:03.702Z,6.55
2023-05-01T22:44:30.494Z,9.40
2023-05-01T22:46:57.002Z,7.68
2023-05-01T22:49:23.441Z,6.07
2023-05-01T22:51:49.877Z,9.77
2023-05-01T22:54:16.342Z,9.63
2023-05-01T22:56:42.834Z,9.90
2023-05-01T22:59:09.345Z,6.72
2023-05-01T23:01:35.835Z,8.60
2023-05-01T23:04:02.560Z,11.07
2023-05-01T23:06:29.197Z,8.00
2023-05-01T23:08:55.729Z,9.93
2023-05-01T23:11:22.315Z,12.35
2023-05-01T23:13:49.817Z,13.27
2023-05-01T23:16:17.038Z,9.85
2023-05-01T23:18:44.605Z,12.45
2023-05-01T23:21:13.211Z,9.57
2023-05-01T23:23:41.382Z,10.82
2023-05-01T23:26:07.979Z,11.75
2023-05-01T23:28:34.439Z,13.40
2023-05-01T23:31:02.689Z,8.98
2023-05-01T23:33:34.855Z,9.60
2023-05-01T23:36:01.574Z,16.70
2023-05-01T23:38:28.073Z,11.35
2023-05-01T23:40:54.562Z,19.92
2023-05-01T23:43:21.199Z,11.77
2023-05-01T23:45:48.066Z,12.43
2023-05-01T23:48:14.900Z,14.15
2023-05-01T23:50:41.453Z,12.30
2023-05-01T23:53:08.573Z,14.20
2023-05-01T23:55:35.670Z,12.57
2023-05-01T23:58:02.365Z,13.10
